Terminal Aerodrome Forecast
Issued by NWS

Current Version | Previous Version | Text Only | Print | Product List | Glossary On
Versions: 1 2 3 4 5 6 7 8 9 10 11 12 13 14 15 16 17 18 19
000
FTUS42 KFFC 270524
TAFFTY
TAF
KFTY 270524Z 2706/2806 23002KT P6SM FEW150 SCT250
     FM271500 24007KT P6SM FEW040
     FM271800 25010KT P6SM SCT040
     FM272000 26010G18KT P6SM BKN040 BKN150
     FM280100 23004KT P6SM SCT040 BKN080=

USA.gov is the U.S. government's official web portal to all federal, state and local government web resources and services.